createdAt,value
2023-05-05T00:00:21.327Z,60.890000
2023-05-05T00:05:24.512Z,60.620000
2023-05-05T00:10:27.208Z,60.620000
2023-05-05T00:15:29.883Z,60.620000
2023-05-05T00:20:32.420Z,60.584000
2023-05-05T00:25:34.924Z,60.404000
2023-05-05T00:30:17.458Z,60.332000
2023-05-05T00:35:31.944Z,60.284000
2023-05-05T00:40:22.725Z,60.285714
2023-05-05T00:45:25.638Z,59.960000
2023-05-05T00:50:29.000Z,59.768000
2023-05-05T00:55:32.140Z,59.804000
2023-05-05T01:00:34.691Z,59.720000
2023-05-05T01:05:17.504Z,59.552000
2023-05-05T01:10:21.059Z,59.372000
2023-05-05T01:15:23.023Z,59.308571
2023-05-05T01:20:25.645Z,59.180000
2023-05-05T01:25:28.742Z,59.024000
2023-05-05T01:30:31.691Z,58.892000
2023-05-05T01:35:35.896Z,58.820000
2023-05-05T01:40:16.937Z,58.820000
2023-05-05T01:45:21.043Z,58.688000
2023-05-05T01:50:23.572Z,58.601429
2023-05-05T01:55:26.774Z,58.304000
2023-05-05T02:00:28.820Z,58.280000
2023-05-05T02:05:32.445Z,58.280000
2023-05-05T02:10:35.182Z,58.280000
2023-05-05T02:15:18.361Z,58.280000
2023-05-05T02:20:20.979Z,58.280000
2023-05-05T02:25:24.016Z,58.061429
2023-05-05T02:30:28.632Z,57.824000
2023-05-05T02:35:32.867Z,57.368000
2023-05-05T02:40:16.108Z,56.696000
2023-05-05T02:45:19.414Z,56.660000
2023-05-05T02:50:22.192Z,56.801429
2023-05-05T02:55:25.012Z,57.032000
2023-05-05T03:00:29.000Z,56.780000
2023-05-05T03:05:31.740Z,55.976000
2023-05-05T03:10:34.297Z,53.624000
2023-05-05T03:15:16.421Z,51.692000
2023-05-05T03:20:19.444Z,50.384000
2023-05-05T03:25:21.645Z,49.748000
2023-05-05T03:30:24.355Z,49.640000
2023-05-05T03:35:26.733Z,49.736000
2023-05-05T03:40:42.977Z,49.100000
2023-05-05T03:45:32.413Z,48.716000
2023-05-05T03:50:35.884Z,48.512000
2023-05-05T03:55:18.573Z,48.692000
2023-05-05T04:00:21.291Z,48.860000
2023-05-05T04:05:23.928Z,49.074286
2023-05-05T04:10:27.037Z,49.796000
2023-05-05T04:15:29.230Z,50.360000
2023-05-05T04:20:32.139Z,50.540000
2023-05-05T04:25:35.320Z,50.384000
2023-05-05T04:30:17.512Z,49.724000
2023-05-05T04:35:20.062Z,48.824000
2023-05-05T04:40:22.540Z,47.235714
2023-05-05T04:45:25.551Z,46.856000
2023-05-05T04:50:28.762Z,46.700000
2023-05-05T04:55:31.481Z,46.580000
2023-05-05T05:00:34.886Z,46.748000
2023-05-05T05:05:17.008Z,47.204000
2023-05-05T05:10:20.543Z,47.348000
2023-05-05T05:15:23.033Z,47.274286
2023-05-05T05:20:25.964Z,46.520000
2023-05-05T05:25:28.545Z,46.160000
2023-05-05T05:30:31.060Z,46.112000
2023-05-05T05:35:34.189Z,46.076000
2023-05-05T05:40:17.271Z,46.412000
2023-05-05T05:45:19.480Z,46.664000
2023-05-05T05:50:24.353Z,46.322857
2023-05-05T05:55:27.187Z,46.220000
2023-05-05T06:00:30.180Z,46.220000
2023-05-05T06:05:33.647Z,46.388000
2023-05-05T06:10:27.373Z,46.400000
2023-05-05T06:15:20.970Z,46.460000
2023-05-05T06:20:24.137Z,46.875714
2023-05-05T06:25:26.509Z,47.060000
2023-05-05T06:30:29.563Z,47.336000
2023-05-05T06:35:32.173Z,47.660000
2023-05-05T06:40:35.298Z,47.696000
2023-05-05T06:45:17.631Z,47.492000
2023-05-05T06:50:19.947Z,47.360000
2023-05-05T06:55:22.777Z,47.235714
2023-05-05T07:00:27.180Z,47.288000
2023-05-05T07:05:28.757Z,47.600000
2023-05-05T07:10:33.893Z,47.684000
2023-05-05T07:15:35.313Z,47.912000
2023-05-05T07:20:18.653Z,48.260000
2023-05-05T07:25:22.905Z,48.584000
2023-05-05T07:30:27.095Z,48.920000
2023-05-05T07:35:28.551Z,49.028000
2023-05-05T07:40:32.210Z,48.920000
2023-05-05T07:45:35.012Z,48.848000
2023-05-05T07:50:17.737Z,48.800000
2023-05-05T07:55:21.137Z,48.812000
2023-05-05T08:00:25.197Z,48.740000
2023-05-05T08:05:28.681Z,48.656000
2023-05-05T08:10:31.459Z,48.380000
2023-05-05T08:15:34.439Z,48.428000
2023-05-05T08:20:17.198Z,48.440000
2023-05-05T08:25:20.614Z,48.560000
2023-05-05T08:30:23.305Z,48.560000
2023-05-05T08:35:27.435Z,48.404000
2023-05-05T08:40:30.059Z,48.296000
2023-05-05T08:45:32.318Z,47.960000
2023-05-05T08:50:34.992Z,48.116000
2023-05-05T08:55:17.400Z,48.260000
2023-05-05T09:00:19.947Z,48.476000
2023-05-05T09:05:27.569Z,48.508571
2023-05-05T09:10:30.366Z,48.560000
2023-05-05T09:15:32.991Z,48.560000
2023-05-05T09:20:35.876Z,48.560000
2023-05-05T09:25:17.797Z,48.560000
2023-05-05T09:30:19.960Z,48.428000
2023-05-05T09:35:22.320Z,48.341429
2023-05-05T09:40:25.240Z,48.200000
2023-05-05T09:45:27.913Z,48.140000
2023-05-05T09:50:30.283Z,48.104000
2023-05-05T09:55:32.807Z,47.936000
2023-05-05T10:00:35.158Z,47.696000
2023-05-05T10:05:17.683Z,47.660000
2023-05-05T10:10:20.278Z,47.732000
2023-05-05T10:15:22.996Z,47.904286
2023-05-05T10:20:25.323Z,48.104000
2023-05-05T10:25:27.601Z,48.416000
2023-05-05T10:30:30.047Z,48.428000
2023-05-05T10:35:32.574Z,48.200000
2023-05-05T10:40:34.898Z,48.272000
2023-05-05T10:45:18.468Z,48.068000
2023-05-05T10:50:19.916Z,47.480000
2023-05-05T10:55:22.195Z,47.454286
2023-05-05T11:00:24.692Z,47.516000
2023-05-05T11:05:27.006Z,47.936000
2023-05-05T11:10:29.534Z,48.200000
2023-05-05T11:15:31.670Z,48.200000
2023-05-05T11:20:33.933Z,48.020000
2023-05-05T11:25:15.996Z,48.068000
2023-05-05T11:30:18.456Z,48.200000
2023-05-05T11:35:20.992Z,48.260000
2023-05-05T11:40:23.237Z,48.380000
2023-05-05T11:45:25.666Z,48.380000
2023-05-05T11:50:28.180Z,48.296000
2023-05-05T11:55:30.452Z,48.200000
2023-05-05T12:00:32.587Z,48.704000
2023-05-05T12:05:36.966Z,48.740000
2023-05-05T12:10:17.512Z,48.716000
2023-05-05T12:15:20.614Z,48.452000
2023-05-05T12:20:23.048Z,47.814286
2023-05-05T12:25:25.492Z,46.808000
2023-05-05T12:30:28.046Z,46.268000
2023-05-05T12:35:30.474Z,45.884000
2023-05-05T12:40:33.228Z,45.572000
2023-05-05T12:45:16.121Z,45.332000
2023-05-05T12:50:18.569Z,45.320000
2023-05-05T12:55:20.857Z,45.320000
2023-05-05T13:00:23.428Z,45.422857
2023-05-05T13:05:26.059Z,45.752000
2023-05-05T13:10:28.910Z,45.992000
2023-05-05T13:15:31.088Z,46.400000
2023-05-05T13:20:33.367Z,47.060000
2023-05-05T13:25:36.029Z,47.336000
2023-05-05T13:30:18.037Z,47.660000
2023-05-05T13:35:20.894Z,48.080000
2023-05-05T13:40:25.216Z,48.328571
2023-05-05T13:45:25.556Z,48.476000
2023-05-05T13:50:28.159Z,48.764000
2023-05-05T13:55:30.312Z,49.100000
2023-05-05T14:00:32.952Z,49.400000
2023-05-05T14:05:35.344Z,49.568000
2023-05-05T14:10:18.008Z,49.640000
2023-05-05T14:15:20.668Z,49.664000
2023-05-05T14:20:23.297Z,49.742857
2023-05-05T14:25:25.702Z,49.868000
2023-05-05T14:30:27.890Z,50.132000
2023-05-05T14:35:30.296Z,50.468000
2023-05-05T14:40:33.030Z,50.828000
2023-05-05T14:45:35.560Z,51.164000
2023-05-05T14:50:17.768Z,51.620000
2023-05-05T14:55:20.539Z,52.028000
2023-05-05T15:00:23.210Z,52.378571
2023-05-05T15:05:25.631Z,52.652000
2023-05-05T15:10:28.072Z,52.892000
2023-05-05T15:15:30.076Z,53.072000
2023-05-05T15:20:32.345Z,53.120000
2023-05-05T15:25:34.542Z,52.640000
2023-05-05T15:30:16.577Z,52.520000
2023-05-05T15:35:19.482Z,52.640000
2023-05-05T15:40:22.486Z,53.792857
2023-05-05T15:45:24.706Z,54.956000
2023-05-05T15:50:27.135Z,54.980000
2023-05-05T15:55:30.365Z,55.016000
2023-05-05T16:00:32.943Z,55.484000
2023-05-05T16:05:35.606Z,55.292000
2023-05-05T16:10:17.871Z,54.860000
2023-05-05T16:15:20.624Z,54.632000
2023-05-05T16:20:23.045Z,55.258571
2023-05-05T16:25:25.593Z,55.676000
2023-05-05T16:30:27.854Z,56.144000
2023-05-05T16:35:30.342Z,56.012000
2023-05-05T16:40:32.849Z,55.712000
2023-05-05T16:45:35.092Z,55.352000
2023-05-05T16:50:16.771Z,54.728000
2023-05-05T16:55:19.316Z,55.844000
2023-05-05T17:00:22.495Z,53.664286
2023-05-05T17:05:24.481Z,53.252000
2023-05-05T17:10:27.132Z,52.700000
2023-05-05T17:15:29.485Z,53.144000
2023-05-05T17:20:31.708Z,53.996000
2023-05-05T17:25:34.509Z,54.212000
2023-05-05T17:30:16.820Z,54.320000
2023-05-05T17:35:19.858Z,53.852000
2023-05-05T17:40:22.397Z,53.664286
2023-05-05T17:45:24.892Z,53.612000
2023-05-05T17:50:27.121Z,53.300000
2023-05-05T17:55:29.418Z,53.420000
2023-05-05T18:00:32.078Z,54.032000
2023-05-05T18:05:34.587Z,55.928000
2023-05-05T18:10:17.109Z,56.696000
2023-05-05T18:15:20.385Z,57.632000
2023-05-05T18:20:22.494Z,57.135714
2023-05-05T18:25:25.119Z,57.320000
2023-05-05T18:30:28.130Z,57.692000
2023-05-05T18:35:30.738Z,56.492000
2023-05-05T18:40:33.141Z,55.088000
2023-05-05T18:45:35.898Z,54.728000
2023-05-05T18:50:18.386Z,56.444000
2023-05-05T18:55:20.901Z,57.188000
2023-05-05T19:00:23.328Z,56.505714
2023-05-05T19:05:26.239Z,56.996000
2023-05-05T19:10:28.328Z,55.808000
2023-05-05T19:15:30.590Z,56.996000
2023-05-05T19:20:33.034Z,55.652000
2023-05-05T19:25:35.025Z,58.040000
2023-05-05T19:30:17.255Z,58.940000
2023-05-05T19:35:19.667Z,56.816000
2023-05-05T19:40:22.179Z,56.235714
2023-05-05T19:45:24.669Z,56.900000
2023-05-05T19:50:27.298Z,57.524000
2023-05-05T19:55:30.174Z,56.984000
2023-05-05T20:00:32.585Z,56.768000
2023-05-05T20:05:35.194Z,57.296000
2023-05-05T20:10:17.392Z,58.004000
2023-05-05T20:15:19.864Z,57.056000
2023-05-05T20:20:22.078Z,57.482857
2023-05-05T20:25:24.291Z,59.384000
2023-05-05T20:30:26.900Z,59.060000
2023-05-05T20:35:29.540Z,59.624000
2023-05-05T20:40:31.945Z,59.876000
2023-05-05T20:45:34.413Z,59.060000
2023-05-05T20:50:16.633Z,59.048000
2023-05-05T20:55:19.166Z,60.092000
2023-05-05T21:00:21.443Z,59.552000
2023-05-05T21:05:24.026Z,58.961429
2023-05-05T21:10:26.744Z,58.700000
2023-05-05T21:15:28.745Z,59.648000
2023-05-05T21:20:31.644Z,59.600000
2023-05-05T21:25:34.231Z,59.492000
2023-05-05T21:30:16.924Z,58.112000
2023-05-05T21:35:18.922Z,58.832000
2023-05-05T21:40:21.331Z,59.348000
2023-05-05T21:45:23.625Z,59.038571
2023-05-05T21:50:27.626Z,58.208000
2023-05-05T21:55:28.257Z,57.968000
2023-05-05T22:00:30.543Z,58.424000
2023-05-05T22:05:32.932Z,60.380000
2023-05-05T22:10:35.199Z,59.828000
2023-05-05T22:15:17.162Z,59.612000
2023-05-05T22:20:19.728Z,59.384000
2023-05-05T22:25:22.222Z,59.977143
2023-05-05T22:30:24.500Z,60.716000
2023-05-05T22:35:27.035Z,60.332000
2023-05-05T22:40:29.316Z,61.568000
2023-05-05T22:45:31.641Z,61.736000
2023-05-05T22:50:34.155Z,62.216000
2023-05-05T22:55:16.600Z,62.048000
2023-05-05T23:00:19.140Z,60.932000
2023-05-05T23:05:21.608Z,61.352000
2023-05-05T23:10:24.480Z,62.021429
2023-05-05T23:15:26.755Z,60.944000
2023-05-05T23:20:29.113Z,60.776000
2023-05-05T23:25:31.332Z,60.152000
2023-05-05T23:30:34.067Z,60.416000
2023-05-05T23:35:16.410Z,61.028000
2023-05-05T23:40:19.111Z,61.688000
2023-05-05T23:45:21.268Z,61.160000
2023-05-05T23:50:24.009Z,61.545714
2023-05-05T23:55:26.456Z,60.608000
